Time;durP1;ratioP1;P1;durP2;ratioP2;P2;SDS_P1;SDS_P2;PMS_P1;PMS_P2;Temp;Humidity;BMP_temperature;BMP_pressure;BME280_temperature;BME280_humidity;BME280_pressure;Samples;Min_cycle;Max_cycle;Signal;HPM_P1;HPM_P2
2022/08/26 00:01:26;;;;;;;32.45;21.20;;;22.70;99.90;;;;;;5012657;28;20037;-73
2022/08/26 00:03:52;;;;;;;33.28;21.52;;;21.50;99.90;;;;;;5012252;28;20490;-72
2022/08/26 00:06:18;;;;;;;28.80;20.05;;;21.60;99.90;;;;;;5013484;28;20037;-73
2022/08/26 00:08:45;;;;;;;27.58;18.58;;;21.50;99.90;;;;;;5012497;28;20123;-74
2022/08/26 00:11:11;;;;;;;30.88;18.75;;;22.00;99.90;;;;;;5012252;28;20469;-74
2022/08/26 00:13:37;;;;;;;31.90;19.73;;;21.60;99.90;;;;;;5013723;28;20046;-73
2022/08/26 00:16:04;;;;;;;28.65;17.88;;;21.50;99.90;;;;;;5013017;28;20389;-74
2022/08/26 00:18:30;;;;;;;32.42;17.50;;;21.40;99.90;;;;;;5013779;28;20052;-73
2022/08/26 00:20:56;;;;;;;31.30;17.02;;;21.70;99.90;;;;;;5012289;28;20130;-74
2022/08/26 00:23:21;;;;;;;31.13;16.65;;;22.40;99.90;;;;;;5013309;28;20124;-74
2022/08/26 00:25:47;;;;;;;28.67;16.15;;;22.00;99.90;;;;;;5012886;28;20045;-73
2022/08/26 00:28:13;;;;;;;26.08;15.73;;;21.40;99.90;;;;;;5012270;28;20038;-74
2022/08/26 00:30:40;;;;;;;26.17;15.07;;;21.30;99.90;;;;;;5012006;28;20125;-74
2022/08/26 00:33:06;;;;;;;26.52;14.40;;;21.40;99.90;;;;;;5013259;28;20073;-74
2022/08/26 00:35:33;;;;;;;33.90;15.45;;;21.70;99.90;;;;;;5011787;28;20038;-73
2022/08/26 00:38:00;;;;;;;24.35;13.90;;;21.50;99.90;;;;;;5011575;28;20041;-74
2022/08/26 00:40:32;;;;;;;26.08;14.60;;;21.70;99.90;;;;;;5012979;28;20580;-74
2022/08/26 00:42:58;;;;;;;24.85;12.98;;;21.70;99.90;;;;;;4995614;28;20045;-74
2022/08/26 00:45:24;;;;;;;25.90;14.20;;;21.50;99.90;;;;;;5011454;28;20562;-73
2022/08/26 00:47:54;;;;;;;23.33;13.80;;;21.70;99.90;;;;;;5011828;28;20120;-73
2022/08/26 00:50:33;;;;;;;25.35;13.02;;;21.40;99.90;;;;;;5011771;28;20042;-73
2022/08/26 00:53:00;;;;;;;23.80;13.25;;;21.60;99.90;;;;;;5011523;28;20073;-73
2022/08/26 00:55:32;;;;;;;23.88;12.02;;;22.80;99.90;;;;;;5011129;28;20041;-73
2022/08/26 00:57:59;;;;;;;24.02;11.98;;;21.70;99.90;;;;;;5013145;28;20042;-73
2022/08/26 01:00:28;;;;;;;23.55;12.00;;;22.70;99.90;;;;;;5011514;28;20530;-73
2022/08/26 01:02:54;;;;;;;23.02;12.85;;;21.80;99.90;;;;;;5011526;28;20042;-74
2022/08/26 01:05:20;;;;;;;22.95;10.55;;;21.70;99.90;;;;;;5011072;28;20121;-73
2022/08/26 01:07:46;;;;;;;24.52;10.20;;;21.30;99.90;;;;;;5011321;28;20096;-73
2022/08/26 01:10:16;;;;;;;17.30;8.95;;;21.30;99.90;;;;;;5011363;28;20037;-74
2022/08/26 01:12:47;;;;;;;22.92;9.98;;;21.30;99.90;;;;;;5012743;28;20041;-74
2022/08/26 01:15:18;;;;;;;21.50;8.88;;;21.20;99.90;;;;;;5010732;28;20046;-73
2022/08/26 01:17:43;;;;;;;18.35;9.32;;;21.30;99.90;;;;;;5012409;28;20558;-73
2022/08/26 01:20:26;;;;;;;22.90;9.68;;;21.10;99.90;;;;;;5012651;28;20042;-74
2022/08/26 01:22:59;;;;;;;;;;;21.30;99.90;;;;;;5013013;28;20506;-73
2022/08/26 01:25:28;;;;;;;23.30;9.57;;;21.30;99.90;;;;;;5012192;28;20383;-73
2022/08/26 01:27:57;;;;;;;22.85;8.93;;;21.20;99.90;;;;;;4995515;28;20121;-73
2022/08/26 01:30:25;;;;;;;20.17;8.23;;;22.90;99.90;;;;;;5011396;28;20045;-73
2022/08/26 01:32:53;;;;;;;14.90;8.32;;;21.20;99.90;;;;;;5011020;28;20558;-73
2022/08/26 01:35:19;;;;;;;17.95;8.98;;;22.60;99.90;;;;;;5010817;28;20046;-74
2022/08/26 01:37:49;;;;;;;16.38;8.90;;;21.20;99.90;;;;;;5012275;28;20044;-74
2022/08/26 01:40:19;;;;;;;17.17;9.13;;;22.20;99.90;;;;;;5011096;28;20048;-73
2022/08/26 01:42:47;;;;;;;18.80;8.70;;;22.40;99.90;;;;;;5010679;28;20037;-73
2022/08/26 01:45:17;;;;;;;23.60;9.73;;;21.10;99.90;;;;;;5011969;28;20041;-73
2022/08/26 01:47:44;;;;;;;19.20;10.18;;;21.20;99.90;;;;;;5011095;28;20128;-73
2022/08/26 01:50:14;;;;;;;20.05;8.88;;;21.20;99.90;;;;;;5011729;28;20073;-74
2022/08/26 01:52:42;;;;;;;18.50;8.88;;;21.30;99.90;;;;;;5010939;28;20408;-74
2022/08/26 01:55:08;;;;;;;13.27;7.38;;;22.30;99.90;;;;;;5010501;28;20503;-74
2022/08/26 01:57:35;;;;;;;15.38;6.72;;;21.40;99.90;;;;;;5010768;28;20045;-73
2022/08/26 02:00:03;;;;;;;21.02;7.65;;;21.00;99.90;;;;;;5011914;28;20504;-73
2022/08/26 02:02:29;;;;;;;15.88;6.78;;;21.00;99.90;;;;;;5010883;28;20381;-73
2022/08/26 02:05:02;;;;;;;13.95;6.20;;;20.80;99.90;;;;;;5011678;28;20083;-73
2022/08/26 02:07:28;;;;;;;14.85;6.93;;;21.20;99.90;;;;;;5010962;28;20228;-74
2022/08/26 02:09:54;;;;;;;21.35;7.65;;;22.10;99.90;;;;;;5010499;28;20034;-73
2022/08/26 02:12:20;;;;;;;15.63;6.13;;;20.60;99.90;;;;;;5012190;28;20432;-73
2022/08/26 02:14:52;;;;;;;13.75;5.75;;;20.80;99.90;;;;;;5010597;28;20504;-73
2022/08/26 02:17:21;;;;;;;12.32;5.78;;;22.30;99.90;;;;;;5065157;23;20049;-73
2022/08/26 02:19:48;;;;;;;16.23;6.57;;;20.50;99.90;;;;;;5051217;28;20076;-73
2022/08/26 02:22:18;;;;;;;11.57;6.45;;;21.60;99.90;;;;;;5033520;28;20047;-73
2022/08/26 02:24:51;;;;;;;13.52;7.40;;;20.70;99.90;;;;;;5049619;28;20041;-73
2022/08/26 02:27:22;;;;;;;18.88;7.47;;;20.70;99.90;;;;;;5051258;28;20040;-73
2022/08/26 02:29:55;;;;;;;13.25;6.55;;;20.70;99.90;;;;;;5051238;28;20048;-73
2022/08/26 02:32:22;;;;;;;13.77;6.25;;;20.80;99.90;;;;;;5049999;28;20123;-73
2022/08/26 02:34:47;;;;;;;14.55;5.65;;;22.50;99.90;;;;;;5051059;28;20086;-73
2022/08/26 02:37:13;;;;;;;13.18;5.47;;;20.80;99.90;;;;;;5049834;28;20037;-73
2022/08/26 02:39:41;;;;;;;19.30;5.43;;;20.80;99.90;;;;;;5051299;28;20045;-73
2022/08/26 02:42:07;;;;;;;14.38;4.93;;;21.70;99.90;;;;;;5051190;28;20075;-73
2022/08/26 02:44:33;;;;;;;13.98;5.35;;;20.90;99.90;;;;;;5048629;28;20081;-73
2022/08/26 02:46:59;;;;;;;11.40;5.68;;;20.90;99.90;;;;;;5049977;28;20072;-73
2022/08/26 02:49:25;;;;;;;14.30;5.88;;;21.50;99.90;;;;;;5049726;28;20029;-73
2022/08/26 02:51:52;;;;;;;12.48;5.80;;;20.70;99.90;;;;;;5050011;28;20044;-73
2022/08/26 02:54:20;;;;;;;12.50;5.35;;;20.70;99.90;;;;;;5049482;28;20555;-73
2022/08/26 02:56:46;;;;;;;16.77;5.75;;;21.00;99.90;;;;;;5051104;28;20045;-73
2022/08/26 02:59:12;;;;;;;14.65;6.22;;;20.80;99.90;;;;;;5051117;28;20084;-73
2022/08/26 03:01:39;;;;;;;17.77;5.50;;;21.60;99.90;;;;;;5054090;28;20077;-73
2022/08/26 03:04:06;;;;;;;11.13;5.05;;;20.90;99.90;;;;;;5052787;28;20510;-73
2022/08/26 03:06:32;;;;;;;13.55;4.40;;;20.90;99.90;;;;;;5053408;28;20033;-73
2022/08/26 03:08:58;;;;;;;13.80;5.32;;;20.60;99.90;;;;;;5054610;28;20409;-73
2022/08/26 03:11:24;;;;;;;18.88;5.10;;;20.70;99.90;;;;;;5036356;28;20036;-73
2022/08/26 03:13:50;;;;;;;13.18;4.70;;;20.90;99.90;;;;;;5036379;28;20045;-73
2022/08/26 03:16:17;;;;;;;11.77;3.47;;;21.40;99.90;;;;;;5052728;28;20128;-73
2022/08/26 03:18:43;;;;;;;7.82;3.67;;;20.60;99.90;;;;;;5053192;28;20100;-73
2022/08/26 03:21:15;;;;;;;15.27;3.97;;;21.90;99.90;;;;;;5054339;28;20076;-73
2022/08/26 03:23:42;;;;;;;12.65;3.10;;;20.80;99.90;;;;;;5053062;28;20087;-73
2022/08/26 03:26:11;;;;;;;12.90;3.72;;;21.50;99.90;;;;;;5052766;28;20037;-73
2022/08/26 03:30:38;;;;;;;13.43;3.45;;;21.90;99.90;;;;;;5052910;28;20402;-73
2022/08/26 03:31:22;;;;;;;14.05;3.80;;;21.10;99.90;;;;;;5053819;28;20059;-73
2022/08/26 03:33:47;;;;;;;13.48;2.97;;;20.50;99.90;;;;;;5036281;28;20131;-73
2022/08/26 03:36:14;;;;;;;11.77;3.03;;;21.10;99.90;;;;;;5053914;28;20037;-74
2022/08/26 03:38:40;;;;;;;12.57;2.50;;;21.50;99.90;;;;;;5052715;28;20045;-73
2022/08/26 03:41:07;;;;;;;11.70;3.58;;;20.50;99.90;;;;;;5052664;28;20048;-73
2022/08/26 03:43:32;;;;;;;13.15;3.08;;;21.00;99.90;;;;;;5035911;28;20132;-73
2022/08/26 03:45:58;;;;;;;9.88;2.88;;;20.70;99.90;;;;;;5053635;28;20120;-73
2022/08/26 03:48:23;;;;;;;11.10;2.97;;;20.50;99.90;;;;;;5052520;28;20044;-73
2022/08/26 03:50:49;;;;;;;13.77;2.95;;;20.70;99.90;;;;;;5052504;28;20043;-73
2022/08/26 03:53:14;;;;;;;10.80;2.78;;;20.60;99.90;;;;;;5052617;28;20414;-73
2022/08/26 03:55:41;;;;;;;18.17;3.10;;;20.60;99.90;;;;;;5053144;28;20498;-73
2022/08/26 03:58:06;;;;;;;8.80;2.53;;;20.50;99.90;;;;;;5052220;28;20049;-73
2022/08/26 04:00:32;;;;;;;11.55;3.17;;;20.70;99.90;;;;;;5052004;28;20049;-73
2022/08/26 04:02:58;;;;;;;16.10;3.10;;;20.70;99.90;;;;;;5053312;28;20048;-73
2022/08/26 04:05:24;;;;;;;11.80;3.65;;;20.50;99.90;;;;;;5051717;28;20040;-73
2022/08/26 04:07:50;;;;;;;12.27;4.45;;;20.60;99.90;;;;;;5053426;28;20037;-73
2022/08/26 04:10:22;;;;;;;10.55;3.25;;;20.60;99.90;;;;;;5052247;28;20119;-73
2022/08/26 04:12:47;;;;;;;14.82;3.40;;;20.70;99.90;;;;;;5051098;28;20084;-73
2022/08/26 04:15:15;;;;;;;20.73;4.13;;;21.50;99.90;;;;;;5051805;28;20045;-73
2022/08/26 04:17:41;;;;;;;10.18;2.65;;;20.70;99.90;;;;;;5051885;28;20548;-73
2022/08/26 04:20:07;;;;;;;16.15;3.53;;;20.50;99.90;;;;;;5053256;28;20045;-73
2022/08/26 04:22:33;;;;;;;14.35;3.33;;;20.50;99.90;;;;;;5053162;28;20037;-73
2022/08/26 04:24:59;;;;;;;12.30;2.90;;;20.40;99.90;;;;;;5034879;28;20032;-73
2022/08/26 04:27:24;;;;;;;15.30;3.22;;;21.10;99.90;;;;;;5051551;28;20094;-73
2022/08/26 04:29:50;;;;;;;19.42;4.95;;;20.60;99.90;;;;;;5053171;28;20479;-73
2022/08/26 04:32:16;;;;;;;14.43;2.80;;;21.10;99.90;;;;;;5053037;28;20102;-73
2022/08/26 04:34:41;;;;;;;11.80;2.97;;;20.40;99.90;;;;;;5052725;28;20112;-73
2022/08/26 04:37:07;;;;;;;8.63;2.05;;;20.70;99.90;;;;;;5051351;28;20565;-73
2022/08/26 04:39:33;;;;;;;14.43;3.40;;;20.40;99.90;;;;;;5051467;28;20457;-73
2022/08/26 04:42:00;;;;;;;13.48;3.08;;;20.60;99.90;;;;;;5053128;28;20041;-73
2022/08/26 04:44:27;;;;;;;11.98;2.97;;;20.60;99.90;;;;;;5053852;28;20037;-73
2022/08/26 04:46:54;;;;;;;13.00;2.80;;;20.60;99.90;;;;;;5035515;28;20474;-73
2022/08/26 04:49:20;;;;;;;15.27;2.50;;;20.90;99.90;;;;;;5058242;28;20161;-73
2022/08/26 04:51:47;;;;;;;11.90;2.17;;;20.40;99.90;;;;;;5050444;28;20161;-73
2022/08/26 04:54:13;;;;;;;8.65;2.38;;;20.50;99.90;;;;;;5047833;28;20037;-73
2022/08/26 04:56:41;;;;;;;12.10;2.63;;;21.10;99.90;;;;;;5050923;28;20498;-73
2022/08/26 04:59:10;;;;;;;12.50;2.58;;;21.60;99.90;;;;;;5051152;28;20033;-73
2022/08/26 05:01:37;;;;;;;12.07;2.65;;;20.60;99.90;;;;;;5052554;28;20231;-73
2022/08/26 05:04:04;;;;;;;13.25;2.47;;;20.50;99.90;;;;;;5051993;28;20342;-73
2022/08/26 05:06:30;;;;;;;10.73;2.05;;;20.60;99.90;;;;;;5052220;28;20040;-73
2022/08/26 05:08:56;;;;;;;11.10;2.88;;;21.40;99.90;;;;;;5050823;28;20578;-73
2022/08/26 05:11:22;;;;;;;12.02;2.63;;;21.90;99.90;;;;;;5052048;28;20036;-73
2022/08/26 05:13:48;;;;;;;15.98;3.75;;;21.10;99.90;;;;;;5050569;28;20436;-73
2022/08/26 05:16:15;;;;;;;11.70;2.58;;;20.40;99.90;;;;;;5051956;28;20459;-73
2022/08/26 05:18:42;;;;;;;16.25;2.92;;;20.50;99.90;;;;;;5052081;28;20083;-73
2022/08/26 05:21:16;;;;;;;15.18;4.20;;;20.60;99.90;;;;;;5052066;28;20041;-73
2022/08/26 05:23:41;;;;;;;14.45;4.13;;;21.60;99.90;;;;;;5050510;28;20065;-73
2022/08/26 05:26:08;;;;;;;9.50;3.05;;;20.70;99.90;;;;;;5050306;28;20041;-73
2022/08/26 05:28:34;;;;;;;16.60;3.70;;;21.00;99.90;;;;;;5050621;28;20038;-73
2022/08/26 05:30:59;;;;;;;10.48;2.67;;;20.60;99.90;;;;;;5050822;28;20040;-73
2022/08/26 05:33:25;;;;;;;10.55;2.95;;;20.50;99.90;;;;;;5042626;28;20064;-73
2022/08/26 05:35:51;;;;;;;11.57;3.05;;;20.70;99.90;;;;;;5030174;28;20190;-72
2022/08/26 05:38:20;;;;;;;10.88;3.53;;;20.50;99.90;;;;;;5026939;28;20049;-73
2022/08/26 05:40:49;;;;;;;9.85;2.20;;;20.30;99.90;;;;;;5042061;28;20037;-72
2022/08/26 05:43:15;;;;;;;13.95;2.53;;;20.50;99.90;;;;;;5040151;28;20041;-73
2022/08/26 05:45:46;;;;;;;10.98;2.85;;;20.30;99.90;;;;;;5043518;28;20047;-73
2022/08/26 05:48:14;;;;;;;10.88;2.55;;;21.00;99.90;;;;;;5019091;28;20049;-72
2022/08/26 05:50:42;;;;;;;10.82;2.58;;;20.20;99.90;;;;;;5037256;28;20119;-72
2022/08/26 05:53:09;;;;;;;15.15;2.63;;;20.30;99.90;;;;;;5036159;28;20168;-72
2022/08/26 05:55:41;;;;;;;15.13;3.50;;;20.40;99.90;;;;;;5036792;28;20084;-72
2022/08/26 05:58:07;;;;;;;9.60;2.13;;;20.50;99.90;;;;;;5035360;28;20084;-72
2022/08/26 06:00:32;;;;;;;10.50;2.38;;;20.40;99.90;;;;;;5035806;28;20139;-73
2022/08/26 06:02:58;;;;;;;12.77;2.42;;;20.30;99.90;;;;;;5035318;28;20046;-72
2022/08/26 06:05:23;;;;;;;9.95;2.80;;;20.20;99.90;;;;;;5034694;28;20045;-73
2022/08/26 06:10:33;;;;;;;12.88;3.53;;;20.70;99.90;;;;;;5039294;28;20132;-72
2022/08/26 06:13:00;;;;;;;8.70;2.50;;;22.00;99.90;;;;;;5035234;28;20108;-73
2022/08/26 06:15:26;;;;;;;11.80;3.60;;;20.20;99.90;;;;;;5035854;28;20091;-72
2022/08/26 06:17:52;;;;;;;7.10;2.08;;;20.50;99.90;;;;;;5038756;28;20130;-74
2022/08/26 06:20:18;;;;;;;10.40;2.58;;;20.30;99.90;;;;;;5030403;28;20080;-73
2022/08/26 06:25:36;;;;;;;13.23;2.97;;;20.20;99.90;;;;;;5041466;28;20040;-72
2022/08/26 06:28:04;;;;;;;12.10;3.30;;;20.20;99.90;;;;;;5036011;28;20034;-73
2022/08/26 06:30:30;;;;;;;12.15;2.55;;;20.40;99.90;;;;;;5035933;28;20456;-73
2022/08/26 06:32:55;;;;;;;12.20;2.85;;;21.00;99.90;;;;;;5038050;28;20182;-73
2022/08/26 06:35:21;;;;;;;15.27;4.28;;;21.30;99.90;;;;;;5041426;28;20066;-73
2022/08/26 06:37:47;;;;;;;9.73;2.70;;;20.60;99.90;;;;;;5034932;28;20049;-72
2022/08/26 06:40:12;;;;;;;16.15;3.25;;;21.70;99.90;;;;;;5044811;28;20490;-73
2022/08/26 06:42:38;;;;;;;13.07;2.65;;;20.00;99.90;;;;;;5051697;28;20153;-72
2022/08/26 06:45:04;;;;;;;13.73;3.28;;;21.70;99.90;;;;;;5040835;28;20049;-73
2022/08/26 06:47:30;;;;;;;10.20;3.20;;;20.20;99.90;;;;;;5033843;28;20041;-73
2022/08/26 06:49:56;;;;;;;13.18;2.47;;;20.10;99.90;;;;;;5033432;28;20522;-73
2022/08/26 06:52:21;;;;;;;8.90;2.65;;;20.30;99.90;;;;;;5034707;28;20044;-73
2022/08/26 06:54:47;;;;;;;9.45;2.67;;;20.70;99.90;;;;;;5033192;28;20045;-73
2022/08/26 06:57:12;;;;;;;9.60;2.47;;;21.00;99.90;;;;;;5033411;28;20462;-73
2022/08/26 06:59:38;;;;;;;7.68;1.90;;;22.00;99.90;;;;;;5033537;28;20044;-73
2022/08/26 07:02:04;;;;;;;8.90;1.70;;;20.40;99.90;;;;;;5033646;28;20038;-73
2022/08/26 07:04:30;;;;;;;8.25;1.95;;;20.50;99.90;;;;;;5034424;28;20077;-73
2022/08/26 07:06:56;;;;;;;6.43;2.22;;;20.40;99.90;;;;;;5034545;28;20440;-73
2022/08/26 07:09:25;;;;;;;6.93;1.83;;;21.90;99.90;;;;;;5033361;28;20073;-73
2022/08/26 07:11:51;;;;;;;11.98;3.47;;;21.20;99.90;;;;;;5033316;28;20033;-73
2022/08/26 07:14:18;;;;;;;8.85;2.10;;;20.70;99.90;;;;;;5032884;28;20037;-73
2022/08/26 07:16:43;;;;;;;16.92;2.33;;;20.50;99.90;;;;;;5034256;28;20156;-73
2022/08/26 07:19:09;;;;;;;8.30;1.50;;;21.40;99.90;;;;;;5034569;28;20076;-73
2022/08/26 07:21:36;;;;;;;8.90;1.80;;;20.50;99.90;;;;;;5033058;28;20128;-73
2022/08/26 07:24:01;;;;;;;15.45;4.20;;;20.70;99.90;;;;;;5034167;28;20034;-73
2022/08/26 07:26:29;;;;;;;6.40;1.50;;;20.60;99.90;;;;;;5034488;28;20078;-73
2022/08/26 07:28:56;;;;;;;8.60;2.22;;;21.10;99.90;;;;;;5034247;28;20045;-75
2022/08/26 07:31:24;;;;;;;6.25;1.50;;;20.70;99.90;;;;;;5032929;28;20499;-73
2022/08/26 07:33:50;;;;;;;6.63;1.85;;;20.80;99.90;;;;;;5032481;28;20048;-73
2022/08/26 07:36:17;;;;;;;9.07;1.60;;;22.00;99.90;;;;;;5033935;28;20052;-73
2022/08/26 07:38:44;;;;;;;5.28;1.38;;;21.20;99.90;;;;;;5032687;28;20072;-73
2022/08/26 07:41:12;;;;;;;8.18;1.90;;;21.80;99.90;;;;;;5032525;28;20077;-73
2022/08/26 07:43:38;;;;;;;4.75;1.48;;;20.80;99.90;;;;;;5032391;28;20041;-73
2022/08/26 07:46:04;;;;;;;8.57;1.65;;;22.30;99.90;;;;;;5042829;28;20349;-73
2022/08/26 07:48:30;;;;;;;13.25;2.00;;;20.70;99.90;;;;;;5047530;28;20043;-73
2022/08/26 07:50:57;;;;;;;6.45;1.48;;;20.70;99.90;;;;;;5050380;28;20036;-73
2022/08/26 07:53:22;;;;;;;6.18;1.65;;;20.70;99.90;;;;;;5052310;28;20091;-73
2022/08/26 07:55:48;;;;;;;14.65;2.08;;;20.40;99.90;;;;;;5051452;28;20040;-73
2022/08/26 07:58:14;;;;;;;9.30;1.60;;;20.60;99.90;;;;;;5052309;28;20076;-73
2022/08/26 08:00:40;;;;;;;8.32;1.35;;;20.40;99.90;;;;;;5052345;28;20074;-73
2022/08/26 08:03:07;;;;;;;11.13;1.65;;;20.50;99.90;;;;;;5052452;28;20098;-75
2022/08/26 08:05:35;;;;;;;9.27;1.60;;;20.70;99.90;;;;;;5051729;28;20029;-73
2022/08/26 08:08:03;;;;;;;10.38;1.58;;;20.60;99.90;;;;;;5052455;28;20037;-72
2022/08/26 08:10:30;;;;;;;13.93;2.78;;;20.30;99.90;;;;;;5034062;28;20041;-72
2022/08/26 08:12:57;;;;;;;8.73;2.45;;;20.60;99.90;;;;;;5052610;28;20045;-72
2022/08/26 08:15:26;;;;;;;5.20;1.40;;;21.50;99.90;;;;;;5034866;28;20045;-72
2022/08/26 08:17:52;;;;;;;9.43;1.48;;;20.60;99.90;;;;;;5065385;23;20123;-71
2022/08/26 08:20:18;;;;;;;7.25;1.80;;;20.70;99.90;;;;;;5051589;28;20589;-71
2022/08/26 08:22:43;;;;;;;13.15;1.92;;;20.70;99.90;;;;;;5053117;28;20039;-71
2022/08/26 08:25:10;;;;;;;7.50;1.77;;;23.20;99.90;;;;;;5031811;28;20197;-71
2022/08/26 08:27:37;;;;;;;15.07;2.20;;;21.10;99.90;;;;;;5041384;28;20464;-71
2022/08/26 08:30:05;;;;;;;6.07;1.33;;;21.00;99.90;;;;;;5033090;28;20483;-72
2022/08/26 08:32:31;;;;;;;7.55;1.77;;;21.40;99.90;;;;;;5031681;28;20072;-72
2022/08/26 08:34:57;;;;;;;5.82;1.33;;;21.30;99.90;;;;;;5014868;28;20408;-71
2022/08/26 08:37:23;;;;;;;5.50;1.00;;;22.30;99.90;;;;;;5032977;28;20108;-71
2022/08/26 08:39:48;;;;;;;9.02;1.98;;;21.60;99.90;;;;;;5033237;28;20095;-72
2022/08/26 08:42:39;;;;;;;8.07;1.33;;;21.50;99.90;;;;;;5015111;28;20503;-72
2022/08/26 08:45:11;;;;;;;8.15;1.95;;;21.50;99.90;;;;;;5032468;28;20053;-71
2022/08/26 08:47:59;;;;;;;9.03;1.77;;;22.50;99.90;;;;;;5031693;28;20045;-71
2022/08/26 08:50:26;;;;;;;16.08;3.17;;;22.40;99.90;;;;;;5029335;28;20307;-71
2022/08/26 08:53:07;;;;;;;15.13;1.50;;;22.40;99.90;;;;;;5032143;28;20042;-72
2022/08/26 08:56:04;;;;;;;11.25;1.85;;;21.40;99.90;;;;;;5024903;28;20416;-72
2022/08/26 08:58:48;;;;;;;10.25;2.17;;;21.20;99.90;;;;;;5031971;28;20072;-72
2022/08/26 09:01:43;;;;;;;16.45;2.95;;;21.20;99.90;;;;;;5034268;28;20043;-71
2022/08/26 09:04:33;;;;;;;10.82;1.90;;;21.30;99.90;;;;;;5035586;28;20067;-72
2022/08/26 09:07:01;;;;;;;9.93;1.92;;;21.00;99.90;;;;;;5032311;28;20047;-72
2022/08/26 09:09:34;;;;;;;7.40;1.42;;;22.50;99.90;;;;;;5031631;28;20306;-72
2022/08/26 09:12:01;;;;;;;8.95;2.22;;;20.80;99.90;;;;;;5032629;28;20046;-72
2022/08/26 09:14:27;;;;;;;8.05;1.40;;;21.00;99.90;;;;;;5031757;28;20041;-72
2022/08/26 09:16:58;;;;;;;5.63;1.45;;;21.20;99.90;;;;;;5030585;28;20053;-72
2022/08/26 09:19:31;;;;;;;7.75;1.35;;;21.00;99.90;;;;;;5014313;28;20094;-72
2022/08/26 09:21:58;;;;;;;12.40;1.80;;;22.20;99.90;;;;;;5032138;28;20045;-72
2022/08/26 09:24:25;;;;;;;9.93;1.70;;;20.90;99.90;;;;;;5030461;28;20068;-72
2022/08/26 09:26:51;;;;;;;5.63;1.60;;;21.60;99.90;;;;;;5030755;28;20037;-72
2022/08/26 09:29:29;;;;;;;10.82;1.50;;;21.10;99.90;;;;;;5014147;28;20515;-72
2022/08/26 09:32:23;;;;;;;5.30;1.23;;;20.90;99.90;;;;;;5033507;28;20495;-71
2022/08/26 09:35:02;;;;;;;10.68;1.42;;;20.80;99.90;;;;;;5037869;28;20060;-72
2022/08/26 09:37:35;;;;;;;5.50;1.40;;;22.60;99.90;;;;;;5032060;28;20072;-72
2022/08/26 09:40:19;;;;;;;;;;;22.40;99.90;;;;;;5030982;28;20133;-72
2022/08/26 09:42:44;;;;;;;6.50;1.67;;;20.90;99.90;;;;;;5031713;28;19917;-72
2022/08/26 09:45:12;;;;;;;8.90;1.40;;;21.00;99.90;;;;;;5013887;28;20402;-72
2022/08/26 09:47:57;;;;;;;8.45;1.60;;;22.40;99.90;;;;;;5031506;28;20526;-72
2022/08/26 09:50:34;;;;;;;11.25;1.85;;;21.60;99.90;;;;;;5031870;28;20084;-72
2022/08/26 09:53:16;;;;;;;30.83;3.60;;;20.50;99.90;;;;;;5031712;28;20579;-72
2022/08/26 09:55:46;;;;;;;11.65;2.30;;;22.40;99.90;;;;;;5030097;28;20033;-72
2022/08/26 09:58:34;;;;;;;13.40;1.77;;;20.50;99.90;;;;;;5031836;28;20053;-72
2022/08/26 10:01:02;;;;;;;11.20;1.58;;;21.30;99.90;;;;;;5031865;28;20526;-72
2022/08/26 10:03:31;;;;;;;9.43;1.77;;;21.40;99.90;;;;;;5013536;28;20483;-72
2022/08/26 10:05:58;;;;;;;4.15;1.50;;;21.10;99.90;;;;;;5013437;28;20077;-73
2022/08/26 10:08:37;;;;;;;9.20;1.95;;;21.90;99.90;;;;;;5031551;28;20088;-73
2022/08/26 10:11:21;;;;;;;7.88;1.65;;;20.20;99.90;;;;;;5032741;28;20030;-73
2022/08/26 10:13:54;;;;;;;8.10;1.35;;;20.60;99.90;;;;;;5034649;28;20495;-72
2022/08/26 10:16:26;;;;;;;10.10;1.67;;;20.50;99.90;;;;;;5034219;28;20100;-73
2022/08/26 10:18:58;;;;;;;8.57;1.63;;;20.40;99.90;;;;;;5034464;28;20041;-72
2022/08/26 10:21:32;;;;;;;6.97;2.22;;;20.70;99.90;;;;;;5035715;28;20041;-73
2022/08/26 10:24:00;;;;;;;7.55;1.35;;;20.30;99.90;;;;;;5033908;28;20495;-72
2022/08/26 10:26:44;;;;;;;8.60;1.63;;;20.90;99.90;;;;;;5035422;28;20044;-73
2022/08/26 10:29:21;;;;;;;11.90;1.58;;;20.60;99.90;;;;;;5035293;28;20499;-72
2022/08/26 10:31:57;;;;;;;3.65;0.95;;;20.40;99.90;;;;;;5033917;28;20080;-72
2022/08/26 10:34:23;;;;;;;5.60;1.45;;;20.40;99.90;;;;;;5035096;28;20037;-72
2022/08/26 10:37:07;;;;;;;5.72;1.35;;;21.40;99.90;;;;;;5034827;28;20506;-72
2022/08/26 10:39:38;;;;;;;8.25;1.92;;;20.30;99.90;;;;;;5033895;28;20049;-72
2022/08/26 10:42:12;;;;;;;8.32;1.50;;;20.40;99.90;;;;;;5035190;28;20202;-72
2022/08/26 10:44:41;;;;;;;7.40;1.05;;;21.50;99.90;;;;;;5033296;28;20045;-69
2022/08/26 10:47:21;;;;;;;8.35;1.95;;;20.60;99.90;;;;;;5032373;28;20041;-71
2022/08/26 10:49:49;;;;;;;11.05;1.40;;;20.60;99.90;;;;;;5041521;28;20051;-71
2022/08/26 10:52:35;;;;;;;13.98;2.17;;;20.10;99.90;;;;;;5042927;28;20056;-72
2022/08/26 10:55:11;;;;;;;5.15;1.05;;;20.50;99.90;;;;;;5035755;28;20053;-72
2022/08/26 10:57:53;;;;;;;5.70;1.45;;;20.60;99.90;;;;;;5040072;28;20184;-71
2022/08/26 11:03:39;;;;;;;3.15;0.80;;;21.00;99.90;;;;;;5037729;28;20103;-72
2022/08/26 11:06:26;;;;;;;10.85;1.40;;;20.00;99.90;;;;;;5034126;28;20046;-72
2022/08/26 11:09:00;;;;;;;8.15;1.45;;;20.50;99.90;;;;;;5024593;28;20036;-72
2022/08/26 11:11:38;;;;;;;4.63;1.10;;;20.20;99.90;;;;;;5039511;28;20487;-73
2022/08/26 11:14:29;;;;;;;6.28;1.08;;;20.00;99.90;;;;;;5041255;28;20123;-72
2022/08/26 11:16:56;;;;;;;7.57;1.92;;;20.10;99.90;;;;;;5031309;28;20037;-72
2022/08/26 11:19:40;;;;;;;9.73;1.55;;;20.20;99.90;;;;;;5042315;28;20047;-73
2022/08/26 11:22:06;;;;;;;7.40;1.40;;;19.70;99.90;;;;;;5039750;28;20049;-74
2022/08/26 11:24:53;;;;;;;6.90;1.67;;;20.80;99.90;;;;;;5051650;28;20387;-73
2022/08/26 11:27:24;;;;;;;7.82;1.58;;;20.50;99.90;;;;;;5053111;28;20083;-74
2022/08/26 11:29:59;;;;;;;5.78;1.27;;;20.30;99.90;;;;;;5052656;28;20129;-74
2022/08/26 11:32:34;;;;;;;6.07;1.50;;;20.20;99.90;;;;;;5052960;28;20033;-73
2022/08/26 11:35:03;;;;;;;8.23;1.20;;;20.70;99.90;;;;;;5052620;28;20397;-73
2022/08/26 11:37:46;;;;;;;9.40;1.75;;;20.70;99.90;;;;;;5052783;28;20052;-74
2022/08/26 11:40:17;;;;;;;5.10;1.50;;;20.00;99.90;;;;;;5052741;28;20052;-73
2022/08/26 11:42:50;;;;;;;5.80;1.30;;;20.40;99.90;;;;;;5052546;28;20052;-73
2022/08/26 11:45:38;;;;;;;10.05;1.52;;;19.80;99.90;;;;;;5035305;28;20107;-72
2022/08/26 11:48:28;;;;;;;5.43;1.35;;;20.10;99.90;;;;;;5033882;28;20115;-73
2022/08/26 11:50:59;;;;;;;9.00;1.60;;;19.70;99.90;;;;;;5037819;28;20550;-73
2022/08/26 11:53:27;;;;;;;7.78;1.40;;;19.90;99.90;;;;;;5040281;28;20053;-73
2022/08/26 11:55:54;;;;;;;14.38;1.77;;;19.90;99.90;;;;;;5035501;28;20403;-73
2022/08/26 11:58:23;;;;;;;4.82;1.20;;;20.00;99.90;;;;;;5032362;28;20041;-73
2022/08/26 12:00:56;;;;;;;8.25;1.58;;;19.80;99.90;;;;;;5015723;28;20041;-73
2022/08/26 12:03:30;;;;;;;9.65;1.20;;;19.90;99.90;;;;;;5032414;28;20041;-73
2022/08/26 12:05:56;;;;;;;6.10;1.20;;;20.00;99.90;;;;;;5031969;28;20037;-72
2022/08/26 12:08:29;;;;;;;7.38;1.48;;;20.20;99.90;;;;;;5033401;28;20561;-73
2022/08/26 12:11:07;;;;;;;10.20;1.88;;;20.00;99.90;;;;;;5032203;28;20041;-73
2022/08/26 12:13:34;;;;;;;9.10;1.50;;;20.10;99.90;;;;;;5031953;28;20491;-73
2022/08/26 12:16:00;;;;;;;7.97;1.30;;;21.00;99.90;;;;;;5031707;28;20377;-73
2022/08/26 12:18:32;;;;;;;5.82;1.40;;;20.90;99.90;;;;;;5015791;28;20500;-73
2022/08/26 12:21:13;;;;;;;5.45;1.60;;;19.90;99.90;;;;;;5031979;28;20041;-73
2022/08/26 12:23:45;;;;;;;8.82;1.80;;;19.90;99.90;;;;;;5031752;28;20048;-73
2022/08/26 12:26:21;;;;;;;7.65;1.60;;;19.90;99.90;;;;;;5031364;28;20478;-73
2022/08/26 12:28:58;;;;;;;10.32;1.30;;;19.70;99.90;;;;;;5031780;28;20045;-73
2022/08/26 12:31:36;;;;;;;11.70;2.42;;;19.50;99.90;;;;;;5033140;28;20256;-72
2022/08/26 12:34:05;;;;;;;8.02;1.50;;;19.80;99.90;;;;;;5031988;28;20045;-72
2022/08/26 12:36:36;;;;;;;6.93;1.60;;;20.60;99.90;;;;;;5031422;28;20132;-73
2022/08/26 12:39:10;;;;;;;8.50;1.55;;;19.90;99.90;;;;;;5033047;28;20054;-73
2022/08/26 12:41:38;;;;;;;7.88;1.50;;;19.50;99.90;;;;;;5032597;28;20044;-72
2022/08/26 12:44:04;;;;;;;7.75;1.48;;;19.90;99.90;;;;;;5039903;28;20083;-72
2022/08/26 12:46:29;;;;;;;6.05;1.60;;;20.30;99.90;;;;;;5048284;28;20068;-73
2022/08/26 12:49:00;;;;;;;6.68;1.33;;;20.10;99.90;;;;;;5048086;28;20411;-72
2022/08/26 12:51:29;;;;;;;7.55;1.52;;;20.00;99.90;;;;;;5023538;28;20498;-72
2022/08/26 12:53:56;;;;;;;9.18;1.55;;;19.80;99.90;;;;;;5042257;28;20032;-72
2022/08/26 12:56:35;;;;;;;7.28;1.35;;;20.50;99.90;;;;;;5052466;28;20041;-73
2022/08/26 12:59:04;;;;;;;4.85;1.10;;;19.40;99.90;;;;;;5051039;28;20044;-73
2022/08/26 13:01:42;;;;;;;6.60;1.63;;;19.60;99.90;;;;;;5047487;28;20514;-73